Time;durP1;ratioP1;P1;durP2;ratioP2;P2;SDS_P1;SDS_P2;PMS_P1;PMS_P2;Temp;Humidity;BMP_temperature;BMP_pressure;BME280_temperature;BME280_humidity;BME280_pressure;Samples;Min_cycle;Max_cycle;Signal;HPM_P1;HPM_P2
2023/07/27 00:02:22;;;;;;;6.00;1.10;;;;;;;12.01;100.00;99155.63;5046668;28;20060;-61
2023/07/27 00:04:47;;;;;;;1.45;0.77;;;;;;;11.99;100.00;99141.84;5047071;28;20470;-61
2023/07/27 00:07:13;;;;;;;7.00;1.33;;;;;;;12.07;100.00;99143.31;5046594;28;20084;-62
2023/07/27 00:09:38;;;;;;;7.18;1.35;;;;;;;12.02;100.00;99141.72;5046633;28;20025;-61
2023/07/27 00:12:03;;;;;;;1.73;0.98;;;;;;;12.00;100.00;99133.13;5046982;28;20129;-62
2023/07/27 00:14:29;;;;;;;3.35;1.75;;;;;;;11.93;100.00;99120.38;5046536;28;20045;-62
2023/07/27 00:16:54;;;;;;;6.00;1.25;;;;;;;11.99;100.00;99134.03;5046899;28;20052;-63
2023/07/27 00:19:20;;;;;;;2.72;0.85;;;;;;;11.99;100.00;99130.56;5046873;28;20036;-63
2023/07/27 00:21:45;;;;;;;2.15;1.85;;;;;;;11.96;100.00;99131.53;5046841;28;20017;-63
2023/07/27 00:24:10;;;;;;;3.53;1.00;;;;;;;11.96;100.00;99131.53;5046436;28;20112;-62
2023/07/27 00:26:36;;;;;;;1.33;0.63;;;;;;;11.97;100.00;99122.84;5046665;28;20026;-63
2023/07/27 00:29:01;;;;;;;3.33;1.13;;;;;;;12.05;100.00;99124.28;5046615;28;20386;-61
2023/07/27 00:31:26;;;;;;;8.50;1.08;;;;;;;12.06;100.00;99119.03;5028803;28;20021;-61
2023/07/27 00:33:52;;;;;;;3.53;1.58;;;;;;;12.07;100.00;99122.50;5046740;28;20025;-62
2023/07/27 00:36:17;;;;;;;1.50;1.10;;;;;;;12.07;100.00;99107.75;5046771;28;20029;-62
2023/07/27 00:38:42;;;;;;;3.40;1.05;;;;;;;12.10;100.00;99123.28;5046386;28;20492;-61
2023/07/27 00:41:08;;;;;;;0.75;0.57;;;;;;;12.10;100.00;99120.69;5045884;28;20032;-61
2023/07/27 00:43:33;;;;;;;6.60;0.70;;;;;;;12.13;100.00;99111.91;5046527;28;20025;-62
2023/07/27 00:45:59;;;;;;;0.95;0.60;;;;;;;12.16;100.00;99116.16;5046602;28;20029;-62
2023/07/27 00:48:25;;;;;;;2.75;1.33;;;;;;;12.18;100.00;99119.53;5046197;28;20021;-62
2023/07/27 00:50:51;;;;;;;6.38;0.88;;;;;;;12.15;100.00;99107.50;5046135;28;20362;-62
2023/07/27 00:53:17;;;;;;;4.47;0.70;;;;;;;12.24;100.00;99119.31;5046512;28;20018;-62
2023/07/27 00:55:43;;;;;;;2.90;0.60;;;;;;;12.25;100.00;99124.47;5045960;28;20075;-63
2023/07/27 00:58:10;;;;;;;5.47;0.82;;;;;;;12.26;100.00;99107.97;5046144;28;20085;-62
2023/07/27 01:00:37;;;;;;;7.43;1.50;;;;;;;12.25;100.00;99121.03;5045443;28;20052;-64
2023/07/27 01:03:03;;;;;;;1.10;0.55;;;;;;;12.26;100.00;99112.31;5027921;28;20112;-62
2023/07/27 01:05:29;;;;;;;2.28;1.08;;;;;;;12.26;100.00;99109.72;5044777;28;20470;-63
2023/07/27 01:07:54;;;;;;;1.20;0.75;;;;;;;12.27;100.00;99101.84;5045759;28;20040;-62
2023/07/27 01:10:30;;;;;;;2.20;1.25;;;;;;;12.24;100.00;99103.72;5045346;28;20026;-62
2023/07/27 01:13:05;;;;;;;2.95;1.00;;;;;;;12.19;100.00;99088.28;5045452;28;20056;-63
2023/07/27 01:15:37;;;;;;;0.90;0.80;;;;;;;12.26;100.00;99110.56;5045441;28;20024;-62
2023/07/27 01:18:25;;;;;;;2.13;0.93;;;;;;;12.29;100.00;99090.53;5045278;28;20018;-61
2023/07/27 01:21:10;;;;;;;0.73;0.50;;;;;;;12.29;100.00;99101.78;5045508;28;20052;-63
2023/07/27 01:23:41;;;;;;;3.38;0.90;;;;;;;12.33;100.00;99097.34;5045507;28;20022;-63
2023/07/27 01:26:37;;;;;;;7.70;0.52;;;;;;;12.33;100.00;99087.75;5045373;28;20029;-63
2023/07/27 01:29:19;;;;;;;2.47;0.95;;;;;;;12.30;100.00;99082.66;5045246;28;20029;-62
2023/07/27 01:31:47;;;;;;;1.80;0.85;;;;;;;12.34;100.00;99089.47;5045581;28;20056;-62
2023/07/27 01:34:32;;;;;;;4.25;0.60;;;;;;;12.36;100.00;99085.03;5045312;28;20052;-61
2023/07/27 01:37:01;;;;;;;0.65;0.50;;;;;;;12.37;100.00;99089.34;5045560;28;20482;-61
2023/07/27 01:39:31;;;;;;;5.38;1.50;;;;;;;12.39;100.00;99087.56;5045174;28;20442;-62
2023/07/27 01:41:59;;;;;;;4.13;0.93;;;;;;;12.41;100.00;99073.63;5027230;28;20028;-62
2023/07/27 01:44:28;;;;;;;1.00;0.70;;;;;;;12.41;100.00;99084.03;5045114;28;20081;-60
2023/07/27 01:46:55;;;;;;;2.08;0.52;;;;;;;12.43;100.00;99084.84;5045084;28;20021;-62
2023/07/27 01:49:22;;;;;;;2.38;1.08;;;;;;;12.45;100.00;99075.19;5045163;28;20029;-62
2023/07/27 01:51:49;;;;;;;3.15;0.75;;;;;;;12.44;100.00;99082.19;5045146;28;20029;-62
2023/07/27 01:54:16;;;;;;;3.65;0.70;;;;;;;12.48;100.00;99090.69;5045280;28;20013;-62
2023/07/27 01:56:42;;;;;;;7.28;1.55;;;;;;;12.48;100.00;99077.69;5044780;28;20028;-62
2023/07/27 01:59:09;;;;;;;6.90;0.90;;;;;;;12.52;100.00;99081.88;5045001;28;20033;-61
2023/07/27 02:01:38;;;;;;;4.50;0.80;;;;;;;12.55;100.00;99092.19;5044917;28;20048;-62
2023/07/27 02:04:05;;;;;;;0.57;0.57;;;;;;;12.53;100.00;99067.94;5044794;28;20021;-62
2023/07/27 02:06:30;;;;;;;2.65;0.70;;;;;;;12.57;100.00;99079.09;5044435;28;20056;-63
2023/07/27 02:08:56;;;;;;;1.80;1.15;;;;;;;12.56;100.00;99077.38;5044613;28;20029;-62
2023/07/27 02:11:24;;;;;;;0.75;0.47;;;;;;;12.61;100.00;99078.06;5045068;28;20025;-63
2023/07/27 02:14:06;;;;;;;6.32;1.45;;;;;;;12.56;100.00;99060.03;5045093;28;20097;-63
2023/07/27 02:16:43;;;;;;;3.75;1.25;;;;;;;12.63;100.00;99071.06;5045270;28;20033;-63
2023/07/27 02:19:15;;;;;;;3.17;1.00;;;;;;;12.60;100.00;99066.78;5048915;28;20057;-63
2023/07/27 02:21:42;;;;;;;0.77;0.65;;;;;;;12.60;100.00;99055.56;5031618;28;20025;-64
2023/07/27 02:24:08;;;;;;;2.20;0.68;;;;;;;12.62;100.00;99069.38;5048881;28;20076;-64
2023/07/27 02:26:34;;;;;;;4.40;0.80;;;;;;;12.62;100.00;99071.97;5048779;28;20377;-63
2023/07/27 02:28:59;;;;;;;0.90;0.50;;;;;;;12.63;100.00;99066.72;5048609;28;20100;-63
2023/07/27 02:31:24;;;;;;;1.17;0.80;;;;;;;12.66;100.00;99068.34;5048501;28;20036;-63
2023/07/27 02:33:50;;;;;;;3.20;1.48;;;;;;;12.70;100.00;99075.09;5030861;28;20457;-63
2023/07/27 02:36:16;;;;;;;5.88;1.23;;;;;;;12.70;100.00;99069.91;5048549;28;20021;-63
2023/07/27 02:38:41;;;;;;;2.35;0.90;;;;;;;12.73;100.00;99074.16;5048574;28;20044;-62
2023/07/27 02:41:09;;;;;;;13.30;1.58;;;;;;;12.75;100.00;99075.78;5048010;28;20089;-63
2023/07/27 02:43:35;;;;;;;5.43;1.27;;;;;;;12.77;100.00;99062.69;5048636;28;20045;-63
2023/07/27 02:46:00;;;;;;;5.78;1.17;;;;;;;12.77;100.00;99055.75;5048282;28;20021;-63
2023/07/27 02:48:26;;;;;;;3.80;0.75;;;;;;;12.83;100.00;99072.88;5048380;28;20033;-61
2023/07/27 02:50:52;;;;;;;2.90;0.98;;;;;;;12.84;100.00;99066.75;5030491;28;20108;-62
2023/07/27 02:53:17;;;;;;;1.65;0.75;;;;;;;12.87;100.00;99063.19;5048531;28;20132;-62
2023/07/27 02:55:53;;;;;;;3.35;0.85;;;;;;;12.87;100.00;99071.88;5048000;28;20029;-63
2023/07/27 02:58:18;;;;;;;1.05;0.70;;;;;;;12.86;100.00;99066.72;5048308;28;20058;-61
2023/07/27 03:00:49;;;;;;;2.00;0.82;;;;;;;12.85;100.00;99065.84;5048072;28;20021;-62
2023/07/27 03:03:14;;;;;;;1.40;0.67;;;;;;;12.87;100.00;99064.06;5048100;28;20365;-64
2023/07/27 03:05:40;;;;;;;2.40;0.88;;;;;;;12.89;100.00;99074.41;5047873;28;20081;-63
2023/07/27 03:08:05;;;;;;;7.72;1.52;;;;;;;12.88;100.00;99063.13;5047953;28;20025;-62
2023/07/27 03:10:34;;;;;;;1.33;0.85;;;;;;;12.90;100.00;99070.88;5047879;28;20450;-62
2023/07/27 03:12:59;;;;;;;4.80;1.13;;;;;;;12.89;100.00;99069.19;5047600;28;20037;-62
2023/07/27 03:15:25;;;;;;;2.28;0.70;;;;;;;12.92;100.00;99073.44;5047755;28;20036;-63
2023/07/27 03:17:50;;;;;;;1.10;0.80;;;;;;;12.92;100.00;99068.22;5047929;28;20021;-62
2023/07/27 03:20:15;;;;;;;9.43;1.42;;;;;;;12.93;100.00;99073.38;5047832;28;20025;-63
2023/07/27 03:22:41;;;;;;;0.75;0.65;;;;;;;12.93;100.00;99073.38;5029818;28;20085;-63
2023/07/27 03:25:06;;;;;;;4.25;1.05;;;;;;;12.92;100.00;99065.63;5047542;28;20079;-63
2023/07/27 03:27:32;;;;;;;1.48;0.90;;;;;;;12.96;100.00;99070.63;5047465;28;20060;-63
2023/07/27 03:29:57;;;;;;;2.58;1.13;;;;;;;12.98;100.00;99074.03;5012282;28;20036;-63
2023/07/27 03:32:22;;;;;;;6.57;1.25;;;;;;;12.97;100.00;99080.13;5047618;28;20064;-63
2023/07/27 03:34:48;;;;;;;2.22;0.80;;;;;;;13.00;100.00;99080.00;5029741;28;20029;-62
2023/07/27 03:37:13;;;;;;;1.92;1.33;;;;;;;13.02;100.00;99086.03;5047483;28;20022;-62
2023/07/27 03:39:39;;;;;;;9.70;1.52;;;;;;;12.97;100.00;99068.88;5047220;28;20032;-63
2023/07/27 03:42:04;;;;;;;7.07;1.42;;;;;;;13.03;100.00;99086.88;5047885;28;20021;-62
2023/07/27 03:44:30;;;;;;;1.85;1.10;;;;;;;13.00;100.00;99072.19;5047219;28;20033;-60
2023/07/27 03:46:55;;;;;;;13.93;1.20;;;;;;;13.03;100.00;99076.47;5047381;28;20089;-62
2023/07/27 03:49:21;;;;;;;2.03;1.25;;;;;;;13.00;100.00;99080.00;5047232;28;20018;-61
2023/07/27 03:51:46;;;;;;;2.63;1.25;;;;;;;13.05;100.00;99089.41;5047262;28;20025;-61
2023/07/27 03:54:12;;;;;;;1.33;0.80;;;;;;;13.02;100.00;99090.38;5047601;28;20014;-60
2023/07/27 03:56:37;;;;;;;2.53;1.00;;;;;;;13.06;100.00;99086.75;5046974;28;20033;-61
2023/07/27 03:59:02;;;;;;;2.83;1.20;;;;;;;13.11;100.00;99091.78;5047209;28;20021;-61
2023/07/27 04:01:28;;;;;;;11.10;1.63;;;;;;;13.13;100.00;99092.56;5046725;28;20028;-61
2023/07/27 04:03:53;;;;;;;7.15;1.38;;;;;;;13.14;100.00;99094.25;5046672;28;20029;-60
2023/07/27 04:06:19;;;;;;;7.18;1.38;;;;;;;13.17;100.00;99104.56;5046839;28;20052;-61
2023/07/27 04:08:44;;;;;;;0.60;0.60;;;;;;;13.19;100.00;99107.97;5046608;28;20026;-61
2023/07/27 04:11:09;;;;;;;6.97;1.00;;;;;;;13.20;100.00;99094.00;5046762;28;20032;-61
2023/07/27 04:13:37;;;;;;;3.33;1.40;;;;;;;13.21;100.00;99100.91;5046428;28;20112;-60
2023/07/27 04:16:03;;;;;;;1.10;0.70;;;;;;;13.19;100.00;99094.94;5046513;28;20049;-61
2023/07/27 04:18:29;;;;;;;7.60;1.33;;;;;;;13.23;100.00;99100.84;5046374;28;20462;-60
2023/07/27 04:20:54;;;;;;;2.95;1.27;;;;;;;13.24;100.00;99102.56;5046751;28;20048;-61
2023/07/27 04:23:19;;;;;;;7.63;1.58;;;;;;;13.24;100.00;99099.94;5046561;28;20052;-61
2023/07/27 04:25:45;;;;;;;1.10;0.77;;;;;;;13.24;100.00;99085.16;5046469;28;20024;-60
2023/07/27 04:28:10;;;;;;;3.20;1.10;;;;;;;13.21;100.00;99095.69;5046481;28;20024;-61
2023/07/27 04:30:36;;;;;;;1.05;0.90;;;;;;;13.20;100.00;99090.53;5046611;28;20021;-61
2023/07/27 04:33:01;;;;;;;1.58;0.82;;;;;;;13.20;100.00;99078.38;5046374;28;20462;-61
2023/07/27 04:35:26;;;;;;;1.98;0.98;;;;;;;13.16;100.00;99082.03;5046273;28;20025;-61
2023/07/27 04:37:52;;;;;;;2.58;1.42;;;;;;;13.17;100.00;99083.72;5046274;28;20045;-61
2023/07/27 04:40:19;;;;;;;3.35;0.80;;;;;;;13.13;100.00;99087.38;5045619;28;20076;-61
2023/07/27 04:42:45;;;;;;;0.57;0.57;;;;;;;13.10;100.00;99083.09;5046209;28;20394;-62
2023/07/27 04:45:10;;;;;;;2.22;1.20;;;;;;;13.06;100.00;99075.47;5027818;28;20026;-62
2023/07/27 04:47:36;;;;;;;5.32;1.27;;;;;;;13.04;100.00;99083.34;5046101;28;20028;-59
2023/07/27 04:50:04;;;;;;;4.93;1.58;;;;;;;13.06;100.00;99078.94;5045840;28;20026;-60
2023/07/27 04:52:29;;;;;;;1.83;1.05;;;;;;;13.08;100.00;99077.09;5045990;28;20120;-60
2023/07/27 04:54:54;;;;;;;1.65;1.00;;;;;;;13.09;100.00;99078.81;5045650;28;20050;-61
2023/07/27 04:57:20;;;;;;;1.35;0.88;;;;;;;13.09;100.00;99078.81;5046120;28;20030;-59
2023/07/27 04:59:45;;;;;;;1.40;1.00;;;;;;;13.10;100.00;99080.50;5045508;28;20022;-60
2023/07/27 05:02:10;;;;;;;5.20;1.40;;;;;;;13.11;100.00;99086.56;5045801;28;20061;-61
2023/07/27 05:04:36;;;;;;;2.33;1.27;;;;;;;13.13;100.00;99095.19;5045391;28;20026;-60
2023/07/27 05:07:01;;;;;;;2.28;0.93;;;;;;;13.12;100.00;99091.72;5045902;28;20065;-59
2023/07/27 05:09:27;;;;;;;5.63;1.15;;;;;;;13.11;100.00;99097.84;5045700;28;20018;-61
2023/07/27 05:11:52;;;;;;;1.80;1.00;;;;;;;13.06;100.00;99102.38;5045547;28;20112;-61
2023/07/27 05:14:18;;;;;;;0.63;0.63;;;;;;;13.05;100.00;99094.63;5045364;28;20505;-60
2023/07/27 05:16:43;;;;;;;1.67;1.08;;;;;;;13.04;100.00;99098.13;5045778;28;20031;-60
2023/07/27 05:19:08;;;;;;;3.45;1.25;;;;;;;13.08;100.00;99094.50;5045535;28;20048;-60
2023/07/27 05:21:34;;;;;;;1.42;0.73;;;;;;;13.08;100.00;99104.94;5045503;28;20494;-59
2023/07/27 05:23:59;;;;;;;5.70;1.00;;;;;;;13.10;100.00;99097.91;5045546;28;20021;-60
2023/07/27 05:26:25;;;;;;;2.63;1.35;;;;;;;13.12;100.00;99096.94;5045216;28;20104;-60
2023/07/27 05:28:50;;;;;;;5.55;1.00;;;;;;;13.17;100.00;99099.34;5045414;28;20017;-61
2023/07/27 05:31:15;;;;;;;4.88;1.25;;;;;;;13.21;100.00;99095.69;5045650;28;20500;-61
2023/07/27 05:33:41;;;;;;;3.33;1.13;;;;;;;13.22;100.00;99092.19;5045446;28;20641;-60
2023/07/27 05:36:06;;;;;;;2.08;1.17;;;;;;;13.24;100.00;99097.34;5045257;28;20013;-62
2023/07/27 05:38:32;;;;;;;1.52;0.85;;;;;;;13.25;100.00;99105.09;5045300;28;20032;-59
2023/07/27 05:41:01;;;;;;;5.97;1.45;;;;;;;13.29;100.00;99097.97;5044935;28;20029;-60
2023/07/27 05:43:26;;;;;;;1.13;1.00;;;;;;;13.31;100.00;99090.09;5045313;28;20017;-61
2023/07/27 05:45:51;;;;;;;1.25;1.08;;;;;;;13.31;100.00;99090.97;5044707;28;20088;-61
2023/07/27 05:48:17;;;;;;;1.05;0.30;;;;;;;13.31;100.00;99100.53;5045071;28;20222;-61
2023/07/27 05:50:42;;;;;;;0.20;0.20;;;;;;;13.33;100.00;99103.94;5044941;28;20026;-61
2023/07/27 05:53:08;;;;;;;0.20;0.20;;;;;;;13.33;100.00;99096.09;5044779;28;20085;-60
2023/07/27 05:55:33;;;;;;;0.20;0.20;;;;;;;13.25;100.00;99101.63;5045001;28;20017;-60
2023/07/27 05:57:59;;;;;;;0.20;0.20;;;;;;;13.33;100.00;99103.94;5045084;28;20026;-60
2023/07/27 06:00:25;;;;;;;0.20;0.20;;;;;;;13.36;100.00;99116.84;5045033;28;20045;-61
2023/07/27 06:02:50;;;;;;;0.20;0.20;;;;;;;13.36;100.00;99115.09;5044978;28;20052;-60
2023/07/27 06:05:15;;;;;;;0.20;0.20;;;;;;;13.33;100.00;99120.44;5045059;28;20096;-59
2023/07/27 06:07:42;;;;;;;0.28;0.28;;;;;;;13.37;100.00;99121.16;5045153;28;20051;-59
2023/07/27 06:10:08;;;;;;;0.20;0.20;;;;;;;13.39;100.00;99130.59;5044932;28;20488;-60
2023/07/27 06:12:33;;;;;;;0.20;0.20;;;;;;;13.69;100.00;99115.53;5045095;28;20030;-59
2023/07/27 06:14:59;;;;;;;0.20;0.20;;;;;;;14.50;100.00;99119.88;5044818;28;20180;-60
2023/07/27 06:17:25;;;;;;;0.20;0.20;;;;;;;15.36;100.00;99121.13;5044735;28;20029;-60
2023/07/27 06:19:51;;;;;;;0.20;0.20;;;;;;;16.27;100.00;99124.47;5044926;28;20104;-61
2023/07/27 06:22:16;;;;;;;0.20;0.20;;;;;;;16.90;100.00;99124.63;5044753;28;20044;-60
2023/07/27 06:24:41;;;;;;;0.20;0.20;;;;;;;16.97;100.00;99123.34;5044370;28;20056;-61
2023/07/27 06:27:07;;;;;;;0.20;0.20;;;;;;;16.47;100.00;99128.63;5044605;28;20028;-61
2023/07/27 06:29:32;;;;;;;0.20;0.20;;;;;;;16.07;100.00;99123.75;5044310;28;20047;-61
2023/07/27 06:31:58;;;;;;;0.20;0.20;;;;;;;15.79;100.00;99128.59;5026865;28;20033;-61
2023/07/27 06:34:23;;;;;;;0.20;0.20;;;;;;;15.63;100.00;99132.91;5044451;28;20033;-60
2023/07/27 06:36:48;;;;;;;0.20;0.20;;;;;;;15.55;100.00;99130.69;5044627;28;20477;-60
2023/07/27 06:39:14;;;;;;;0.20;0.20;;;;;;;15.86;100.00;99131.75;5044560;28;20469;-60
2023/07/27 06:41:39;;;;;;;0.20;0.20;;;;;;;16.43;100.00;99133.22;5044310;28;20044;-61
2023/07/27 06:44:05;;;;;;;0.20;0.20;;;;;;;17.09;100.00;99135.78;5044641;28;20018;-62
2023/07/27 06:46:31;;;;;;;0.20;0.20;;;;;;;17.40;100.00;99133.19;5044431;28;20462;-63
2023/07/27 06:48:57;;;;;;;0.10;0.10;;;;;;;17.36;100.00;99136.09;5044732;28;20045;-63
2023/07/27 06:51:23;;;;;;;0.10;0.10;;;;;;;17.48;100.00;99135.38;5044424;28;20021;-62
2023/07/27 06:53:49;;;;;;;0.20;0.20;;;;;;;18.05;100.00;99133.81;5044591;28;20044;-62
2023/07/27 06:56:14;;;;;;;0.20;0.20;;;;;;;18.38;100.00;99137.16;5044323;28;20025;-60
2023/07/27 06:58:40;;;;;;;0.10;0.10;;;;;;;18.55;100.00;99143.97;5044688;28;20049;-60
2023/07/27 07:01:05;;;;;;;0.20;0.20;;;;;;;18.30;100.00;99137.63;5044738;28;20017;-60
2023/07/27 07:03:31;;;;;;;0.20;0.20;;;;;;;18.18;100.00;99141.81;5044841;28;20140;-59
2023/07/27 07:05:56;;;;;;;0.20;0.20;;;;;;;18.02;100.00;99144.50;5047843;28;20262;-59
2023/07/27 07:08:21;;;;;;;0.20;0.20;;;;;;;17.66;100.00;99130.84;5047785;28;20018;-59
2023/07/27 07:10:47;;;;;;;0.20;0.20;;;;;;;17.44;100.00;99153.06;5047752;28;20057;-61
2023/07/27 07:13:12;;;;;;;0.20;0.20;;;;;;;17.18;100.00;99159.81;5047697;28;20049;-60
2023/07/27 07:15:38;;;;;;;0.20;0.20;;;;;;;16.91;100.00;99161.22;5029972;28;20098;-60
2023/07/27 07:18:03;;;;;;;0.10;0.10;;;;;;;16.59;100.00;99158.59;5047899;28;20060;-61
2023/07/27 07:20:28;;;;;;;0.20;0.20;;;;;;;16.40;100.00;99170.06;5047667;28;20029;-61
2023/07/27 07:22:54;;;;;;;0.20;0.20;;;;;;;16.17;100.00;99160.75;5047463;28;20025;-61
2023/07/27 07:25:19;;;;;;;0.20;0.20;;;;;;;16.13;100.00;99161.84;5047174;28;20133;-61
2023/07/27 07:27:45;;;;;;;0.10;0.10;;;;;;;16.23;100.00;99163.06;5047415;28;20025;-61
2023/07/27 07:30:11;;;;;;;0.20;0.20;;;;;;;16.62;100.00;99163.66;5047415;28;20021;-61
2023/07/27 07:32:37;;;;;;;0.20;0.20;;;;;;;16.70;100.00;99168.47;5047229;28;20454;-61
2023/07/27 07:35:02;;;;;;;0.20;0.20;;;;;;;16.74;100.00;99170.03;5047335;28;20025;-61
2023/07/27 07:37:28;;;;;;;0.20;0.20;;;;;;;17.13;100.00;99170.56;5047334;28;20056;-62
2023/07/27 07:39:53;;;;;;;0.20;0.20;;;;;;;17.24;100.00;99175.19;5047119;28;20116;-61
2023/07/27 07:42:18;;;;;;;0.20;0.20;;;;;;;17.35;100.00;99171.97;5047070;28;20044;-60
2023/07/27 07:44:44;;;;;;;0.20;0.20;;;;;;;17.38;100.00;99171.78;5047168;28;20068;-60
2023/07/27 07:47:09;;;;;;;0.20;0.20;;;;;;;17.24;100.00;99175.19;5047078;28;20108;-60
2023/07/27 07:49:34;;;;;;;0.20;0.20;;;;;;;17.09;100.00;99176.91;5047032;28;20025;-60
2023/07/27 07:52:00;;;;;;;0.20;0.20;;;;;;;16.93;100.00;99179.50;5046892;28;20017;-60
2023/07/27 07:54:29;;;;;;;0.20;0.20;;;;;;;16.80;100.00;99179.31;5045819;28;20023;-60
2023/07/27 07:56:55;;;;;;;0.20;0.20;;;;;;;16.73;100.00;99178.78;5046690;28;20029;-60
2023/07/27 07:59:20;;;;;;;0.20;0.20;;;;;;;16.79;100.00;99181.09;5046913;28;20032;-61
2023/07/27 08:01:46;;;;;;;0.17;0.17;;;;;;;16.83;100.00;99181.78;5046460;28;20021;-61
2023/07/27 08:04:11;;;;;;;0.20;0.20;;;;;;;16.84;100.00;99173.81;5046567;28;20026;-60
2023/07/27 08:06:36;;;;;;;0.20;0.20;;;;;;;16.91;100.00;99179.59;5046653;28;20018;-61
2023/07/27 08:09:02;;;;;;;0.20;0.20;;;;;;;17.59;100.00;99180.22;5046709;28;20076;-60
2023/07/27 08:11:27;;;;;;;0.20;0.20;;;;;;;18.69;100.00;99179.09;5028781;28;20040;-61
2023/07/27 08:13:55;;;;;;;0.20;0.20;;;;;;;19.65;100.00;99176.56;5046419;28;20050;-60
2023/07/27 08:16:20;;;;;;;0.20;0.20;;;;;;;20.54;100.00;99181.16;5045945;28;20018;-60
2023/07/27 08:18:46;;;;;;;0.20;0.20;;;;;;;21.37;100.00;99181.50;5046771;28;20010;-61
2023/07/27 08:21:12;;;;;;;0.10;0.10;;;;;;;21.66;100.00;99175.00;5046317;28;20025;-61
2023/07/27 08:23:38;;;;;;;0.68;0.55;;;;;;;22.04;100.00;99179.19;5028637;28;20048;-62
2023/07/27 08:26:07;;;;;;;4.75;1.45;;;;;;;22.39;100.00;99166.88;5046341;28;20025;-61
2023/07/27 08:28:33;;;;;;;1.50;0.90;;;;;;;22.63;100.00;99180.94;5046281;28;20025;-61
2023/07/27 08:31:02;;;;;;;0.98;0.85;;;;;;;22.97;100.00;99175.59;5046618;28;20029;-61
2023/07/27 08:33:27;;;;;;;1.55;1.00;;;;;;;23.44;100.00;99185.13;5046541;28;20025;-61
2023/07/27 08:35:53;;;;;;;2.38;1.30;;;;;;;23.66;100.00;99174.56;5046514;28;20048;-61
2023/07/27 08:38:18;;;;;;;2.03;0.93;;;;;;;23.78;99.92;99184.13;5046349;28;20031;-62
2023/07/27 08:40:53;;;;;;;1.75;0.93;;;;;;;23.98;97.73;99185.09;5046287;28;20031;-61
2023/07/27 08:43:19;;;;;;;1.10;0.93;;;;;;;24.13;96.99;99188.25;5046231;28;20079;-60
2023/07/27 08:45:45;;;;;;;1.08;0.50;;;;;;;23.81;90.18;99183.00;5046124;28;20021;-61
2023/07/27 08:48:12;;;;;;;1.50;0.63;;;;;;;23.24;87.23;99190.19;5045868;28;20041;-60
2023/07/27 08:50:38;;;;;;;1.48;0.80;;;;;;;23.48;87.40;99177.75;5046135;28;20022;-61
2023/07/27 08:53:03;;;;;;;3.05;1.15;;;;;;;23.88;81.25;99190.31;5046101;28;20085;-61
2023/07/27 08:55:29;;;;;;;0.95;0.80;;;;;;;24.30;79.18;99193.94;5045676;28;20022;-61
2023/07/27 08:57:55;;;;;;;5.68;0.90;;;;;;;24.43;70.53;99192.88;5046136;28;20049;-61
2023/07/27 09:00:21;;;;;;;1.90;0.82;;;;;;;24.65;73.68;99189.19;5045770;28;20021;-62
2023/07/27 09:02:47;;;;;;;1.48;0.60;;;;;;;24.81;75.21;99185.22;5045537;28;20021;-62
2023/07/27 09:05:13;;;;;;;0.70;0.60;;;;;;;24.59;71.31;99198.53;5045598;28;20052;-61
2023/07/27 09:07:39;;;;;;;0.80;0.60;;;;;;;25.03;69.31;99207.22;5045460;28;20029;-61
2023/07/27 09:10:08;;;;;;;2.03;0.70;;;;;;;25.63;68.84;99201.00;5045340;28;20025;-61
2023/07/27 09:12:34;;;;;;;1.50;0.63;;;;;;;26.22;64.91;99200.91;5044433;28;20389;-61
2023/07/27 09:14:59;;;;;;;0.45;0.45;;;;;;;26.19;59.88;99197.69;5045409;28;20034;-61
2023/07/27 09:17:25;;;;;;;0.93;0.60;;;;;;;25.43;59.37;99194.84;5045691;28;20033;-61
2023/07/27 09:19:52;;;;;;;0.77;0.50;;;;;;;25.68;66.85;99211.22;5045589;28;20499;-60
2023/07/27 09:22:17;;;;;;;0.95;0.60;;;;;;;26.17;62.87;99195.19;5045506;28;20064;-61
2023/07/27 09:24:43;;;;;;;0.63;0.50;;;;;;;26.15;61.10;99204.28;5045266;28;20076;-62
2023/07/27 09:27:13;;;;;;;0.68;0.43;;;;;;;25.98;62.10;99191.59;5044244;28;20021;-61
2023/07/27 09:29:40;;;;;;;0.75;0.50;;;;;;;25.83;62.12;99209.78;5045521;28;20092;-61
2023/07/27 09:32:08;;;;;;;0.77;0.60;;;;;;;26.12;60.66;99200.09;5045460;28;20056;-60
2023/07/27 09:34:34;;;;;;;1.48;0.50;;;;;;;26.87;63.54;99209.06;5045458;28;20096;-61
2023/07/27 09:37:04;;;;;;;0.65;0.50;;;;;;;27.53;61.45;99202.75;5045614;28;20017;-60
2023/07/27 09:39:32;;;;;;;1.63;0.65;;;;;;;28.11;52.38;99200.56;5045233;28;20028;-62
2023/07/27 09:41:58;;;;;;;0.40;0.38;;;;;;;27.33;52.49;99213.59;5045028;28;20386;-62
2023/07/27 09:44:24;;;;;;;0.50;0.40;;;;;;;26.18;53.64;99199.50;5045205;28;20415;-61
2023/07/27 09:46:50;;;;;;;1.05;0.47;;;;;;;25.49;57.46;99221.69;5045208;28;20072;-60
2023/07/27 09:49:17;;;;;;;1.63;0.47;;;;;;;24.99;60.39;99212.81;5044952;28;20022;-60
2023/07/27 09:51:44;;;;;;;0.40;0.40;;;;;;;24.54;59.27;99223.78;5045355;28;20033;-60
2023/07/27 09:54:12;;;;;;;2.83;0.63;;;;;;;24.46;63.70;99224.44;5045239;28;20025;-60
2023/07/27 09:56:37;;;;;;;0.30;0.30;;;;;;;24.28;64.08;99222.41;5045054;28;20036;-61
2023/07/27 09:59:03;;;;;;;0.60;0.47;;;;;;;23.92;61.28;99237.75;5027395;28;20088;-60
2023/07/27 10:01:29;;;;;;;0.65;0.45;;;;;;;23.73;61.85;99229.56;5044468;28;20059;-61
2023/07/27 10:04:00;;;;;;;0.73;0.60;;;;;;;23.70;63.41;99227.16;5044817;28;20032;-61
2023/07/27 10:06:26;;;;;;;0.45;0.30;;;;;;;23.48;60.47;99231.56;5045386;28;20045;-60
2023/07/27 10:08:53;;;;;;;3.00;0.65;;;;;;;24.33;62.20;99219.38;5044760;28;20032;-61
2023/07/27 10:11:28;;;;;;;0.45;0.45;;;;;;;25.52;62.27;99227.69;5045118;28;20068;-60
2023/07/27 10:13:55;;;;;;;1.40;0.50;;;;;;;25.77;58.78;99228.16;5044747;28;20042;-60
2023/07/27 10:16:26;;;;;;;0.20;0.20;;;;;;;25.32;60.93;99214.41;5027074;28;20112;-60
2023/07/27 10:18:52;;;;;;;0.88;0.52;;;;;;;24.43;58.49;99233.50;5044957;28;20052;-61
2023/07/27 10:21:22;;;;;;;1.67;0.70;;;;;;;23.34;59.74;99237.13;5044888;28;20080;-61
2023/07/27 10:24:01;;;;;;;0.68;0.40;;;;;;;23.25;61.88;99228.97;5044819;28;20029;-61
2023/07/27 10:26:52;;;;;;;0.40;0.38;;;;;;;24.09;61.07;99234.53;5044726;28;20032;-60
2023/07/27 10:29:27;;;;;;;1.23;0.32;;;;;;;24.93;59.42;99239.03;5045133;28;20017;-61
2023/07/27 10:32:06;;;;;;;0.20;0.20;;;;;;;25.62;53.67;99236.53;5044733;28;20081;-60
2023/07/27 10:34:33;;;;;;;0.30;0.30;;;;;;;25.95;50.26;99242.38;5044774;28;20089;-61
2023/07/27 10:37:01;;;;;;;0.70;0.50;;;;;;;25.96;50.10;99238.75;5044667;28;20025;-61
2023/07/27 10:39:47;;;;;;;0.95;0.50;;;;;;;26.18;48.36;99241.25;5047965;28;20021;-61
2023/07/27 10:42:18;;;;;;;0.28;0.20;;;;;;;26.30;51.88;99234.75;5048202;28;20025;-61
2023/07/27 10:44:56;;;;;;;0.90;0.53;;;;;;;26.23;51.02;99247.78;5047975;28;20025;-61
2023/07/27 10:47:23;;;;;;;0.20;0.20;;;;;;;26.13;53.55;99254.97;5048565;28;20259;-62
2023/07/27 10:49:50;;;;;;;0.20;0.20;;;;;;;25.84;55.54;99242.53;5048272;28;20029;-60
2023/07/27 10:52:18;;;;;;;0.30;0.30;;;;;;;25.98;53.53;99252.75;5048729;28;20021;-61
2023/07/27 10:54:45;;;;;;;0.20;0.20;;;;;;;25.93;55.59;99254.13;5048288;28;20058;-61
2023/07/27 10:57:13;;;;;;;2.05;0.47;;;;;;;26.13;50.07;99249.66;5048323;28;20025;-61
2023/07/27 10:59:40;;;;;;;1.08;0.35;;;;;;;26.23;49.22;99250.44;5048440;28;20218;-61
2023/07/27 11:02:12;;;;;;;2.63;0.28;;;;;;;26.26;50.82;99245.84;5048222;28;20052;-62
2023/07/27 11:04:39;;;;;;;;;;;;;;;26.21;54.37;99257.75;5048427;28;20453;-61
2023/07/27 11:07:05;;;;;;;0.68;0.28;;;;;;;25.70;51.94;99247.28;5047800;28;19909;-61
2023/07/27 11:09:30;;;;;;;3.53;0.40;;;;;;;25.13;54.07;99248.75;5047961;28;20068;-61
2023/07/27 11:12:02;;;;;;;0.55;0.28;;;;;;;24.59;57.13;99253.41;5048056;28;20021;-60
2023/07/27 11:14:27;;;;;;;0.30;0.30;;;;;;;24.20;54.45;99252.22;5047832;28;20045;-61
2023/07/27 11:16:53;;;;;;;0.30;0.30;;;;;;;23.70;51.58;99247.50;5048006;28;20033;-62
2023/07/27 11:19:18;;;;;;;0.95;0.80;;;;;;;23.23;55.47;99252.06;5047922;28;20045;-61
2023/07/27 11:21:44;;;;;;;2.03;0.50;;;;;;;22.90;58.87;99248.50;5047891;28;20029;-61
2023/07/27 11:24:10;;;;;;;2.78;0.57;;;;;;;22.72;59.21;99243.69;5047338;28;20045;-61
2023/07/27 11:26:37;;;;;;;1.25;0.57;;;;;;;22.50;59.75;99255.06;5047532;28;20090;-61